• Join FlightAware (Why Join?)
  • Login
  • US Flag 
11:57PM EDT


 

Airport Tracker/Info


-or-


 

Live Flight TrackerFlight Track Log ✈ PCO341 ✈ 09-May-2013 ✈ CYVR - CYBD / QBC

Flight Track Log - Related Links

Times and Time Zones

All times are in EDT time to prevent confusion due to time zone crossing. See the PCO341 flight status page for this flight to view local times or setup timezone preferences in your user account.

Time Position Orientation Groundspeed Altitude Reporting Facility
EDT Latitude Longitude Course Direction KTS MPH feet Rate Location/Type
12:53PM 49.1667 -123.2333 334° Northwest 140 161 1,600  Level Vancouver Center
12:54PM 49.1833 -123.3167 287° West 160 184 3,400 1,560 Climbing Vancouver Center
12:55PM 49.2167 -123.3333 342° North 170 196 4,800 1,260 Climbing Vancouver Center
12:56PM 49.2667 -123.3333 360° North 170 196 6,000 1,200 Climbing Vancouver Center
12:57PM 49.3167 -123.3333 360° North 170 196 7,200 1,200 Climbing Vancouver Center
12:58PM 49.4974 -123.4858 331° Northwest  Level FlightAware Approximate
12:58PM 49.3500 -123.3333 360° North 170 196 8,400  Level Vancouver Center
12:59PM 49.5529 -123.5313 334° Northwest  Level FlightAware Approximate
12:59PM 49.4000 -123.3333 360° North 180 207 9,600  Level Vancouver Center
01:00PM 49.4500 -123.3667 337° Northwest 180 207 10,700 1,020 Climbing Vancouver Center
01:01PM 49.5000 -123.3833 348° North 180 207 11,700 900 Climbing Vancouver Center
01:02PM 49.5333 -123.4333 316° Northwest 180 207 12,600 900 Climbing Vancouver Center
01:03PM 49.5833 -123.4833 327° Northwest 190 219 13,500 900 Climbing Vancouver Center
01:04PM 49.6167 -123.5333 316° Northwest 190 219 14,400 720 Climbing Vancouver Center
01:05PM 49.6667 -123.6000 319° Northwest 200 230 15,000 660 Climbing Vancouver Center
01:06PM 49.7167 -123.6500 327° Northwest 200 230 15,800 480 Climbing Vancouver Center
01:07PM 49.7667 -123.7000 327° Northwest 210 242 16,000 60 Climbing Vancouver Center
01:08PM 49.8167 -123.7500 327° Northwest 230 265 16,000  Level Vancouver Center
01:09PM 49.8667 -123.8000 327° Northwest 240 276 16,000  Level Vancouver Center
01:10PM 49.9333 -123.8500 334° Northwest 240 276 16,000  Level Vancouver Center
01:11PM 49.9833 -123.9333 313° West 240 276 16,000  Level Vancouver Center
01:12PM 50.0333 -123.9833 327° Northwest 250 288 16,000  Level Vancouver Center
01:13PM 50.1000 -124.0333 334° Northwest 250 288 16,000  Level Vancouver Center
01:14PM 50.1500 -124.1167 313° West 250 288 16,000  Level Vancouver Center
01:15PM 50.2167 -124.1667 334° Northwest 250 288 16,000  Level Vancouver Center
01:16PM 50.2667 -124.2167 327° Northwest 250 288 16,000  Level Vancouver Center
01:18PM 50.3238 -124.2891 321° Northwest  Level FlightAware Approximate
01:19PM 50.4000 -124.3500 321° Northwest 250 288 16,000  Level Vancouver Center
01:20PM 50.4500 -124.4333 313° West 240 276 16,000  Level Vancouver Center
01:21PM 50.5167 -124.4833 335° Northwest 250 288 16,000  Level Vancouver Center
01:22PM 50.5667 -124.5333 328° Northwest 250 288 16,000  Level Vancouver Center
01:23PM 50.6167 -124.5833 328° Northwest 270 311 16,000  Level Vancouver Center
01:24PM 50.6833 -124.6667 322° Northwest 230 265 16,000  Level Vancouver Center
01:25PM 50.7333 -124.7167 328° Northwest 240 276 16,000  Level Vancouver Center
01:26PM 50.8000 -124.7833 328° Northwest 250 288 16,000  Level Vancouver Center
01:27PM 50.8500 -124.8500 320° Northwest 240 276 16,000  Level Vancouver Center
01:28PM 50.9000 -124.9167 320° Northwest 240 276 16,000  Level Vancouver Center
01:29PM 50.9667 -124.9667 335° Northwest 250 288 16,000  Level Vancouver Center
01:30PM 51.0167 -125.0500 314° West 250 288 16,000  Level Vancouver Center
01:31PM 51.0667 -125.1000 328° Northwest 250 288 16,000  Level Vancouver Center
01:32PM 51.1333 -125.1500 335° Northwest 250 288 16,000  Level Vancouver Center
01:33PM 51.1833 -125.2333 314° West 250 288 16,000  Level Vancouver Center
01:34PM 51.2500 -125.3000 328° Northwest 250 288 16,000  Level Vancouver Center
01:35PM 51.3000 -125.3500 328° Northwest 250 288 16,000  Level Vancouver Center
01:36PM 51.3500 -125.4000 328° Northwest 240 276 16,000  Level Vancouver Center
01:37PM 51.4167 -125.4833 322° Northwest 250 288 16,000  Level Vancouver Center
01:38PM 51.4667 -125.5333 328° Northwest 250 288 16,000  Level Vancouver Center
01:39PM 51.5500 -125.6167 328° Northwest 230 265 16,000  Level Vancouver Center
01:40PM 51.6167 -125.6833 328° Northwest 250 288 16,000  Level Vancouver Center
01:41PM 51.6667 -125.7667 314° West 250 288 16,000  Level Vancouver Center
01:42PM 51.7333 -125.8167 335° Northwest 250 288 16,000  Level Vancouver Center
01:43PM 51.7667 -125.8833 309° West 250 288 16,000  Level Vancouver Center
01:44PM 51.8333 -125.9333 335° Northwest 250 288 16,000  Level Vancouver Center
01:45PM 51.8833 -126.0167 314° West 250 288 16,000 -720 Level Vancouver Center
01:46PM 51.9500 -126.0667 335° Northwest 250 288 14,600 -1,560 Descending Vancouver Center
01:47PM 52.0167 -126.1333 328° Northwest 250 288 12,900 -1,740 Descending Vancouver Center